Shoryu — 3FVC5 — position and weather

sailwx.info

Track history (hours):
 
Tides and Currents Weather Stations Pressure Air Temp Water Temp Dewpoint Dewpoint Depression Visibility Wind Speed Wind Dir Waves Ship Positions

Shoryu

Last reported at 2018-May-26 15:21 UTC. Time now 2018-Jun-19 23:41 UTC.
Position S 32°25' E 152°40'.
Warning: this ship's position is 24 days out of date.

Length 235 m; draft 12.9 m.

Type: Cargo ship. MMSI: 351897000.

Date/timePositionNaut miles runAvg speedWind from/ knotsBaromVisibWave heightAir tempDewpointWater temp
2018-May-26 15:21S 32°25' E 152°40'3 9.3
2018-May-26 15:00S 32°28' E 152°38'6 9.6
2018-May-26 14:20S 32°33' E 152°33'411.0
2018-May-26 13:56S 32°36' E 152°30'511.1
2018-May-26 13:30S 32°39' E 152°25'611.0
2018-May-26 13:00S 32°43' E 152°21'611.0
2018-May-26 12:30S 32°47' E 152°16'611.1
2018-May-26 12:00S 32°50' E 152°11'510.6
2018-May-26 11:30S 32°54' E 152°06'510.3
2018-May-26 11:00S 32°57' E 152°01'510.2
2018-May-26 10:30S 32°58' E 151°55'4 8.3
2018-May-26 10:00S 32°58' E 151°50'4 7.4
2018-May-26 09:30S 32°55' E 151°48'2 3.5
2018-May-26 09:00S 32°55' E 151°46'1 2.3
2018-May-26 08:27S 32°53' E 151°46'0 0.0
2018-May-26 06:32S 32°53' E 151°46'0 0.0
2018-May-26 06:02S 32°53' E 151°46'0 0.0
2018-May-26 05:26S 32°53' E 151°46'0 0.0
2018-May-26 04:56S 32°53' E 151°46'0 0.0
2018-May-26 04:26S 32°53' E 151°46'0 0.0
2018-May-26 03:14S 32°53' E 151°46'0 0.0
2018-May-26 02:44S 32°53' E 151°46'0 0.0
2018-May-26 02:29S 32°53' E 151°46'0 0.0
2018-May-26 00:11S 32°53' E 151°46'0 0.0
2018-May-25 23:56S 32°53' E 151°46'0 0.0
2018-May-25 23:29S 32°53' E 151°46'0 0.0
2018-May-25 22:41S 32°53' E 151°46'0 0.0
2018-May-25 13:26S 32°53' E 151°46'0 0.0
2018-May-25 12:56S 32°53' E 151°46'0 0.0
2018-May-24 21:14S 32°53' E 151°46'0 0.0
2018-May-24 20:56S 32°53' E 151°46'0 0.0
2018-May-24 20:20S 32°53' E 151°46'0 0.0
2018-May-24 19:50S 32°53' E 151°46'0 0.0
2018-May-24 19:17S 32°53' E 151°46'0 0.0
2018-May-24 18:59S 32°53' E 151°46'0 0.0
2018-May-24 17:38S 32°53' E 151°46'0 0.0
2018-May-24 17:26S 32°53' E 151°46'0 0.0
2018-May-24 15:50S 32°53' E 151°46'0 0.0
2018-May-24 15:26S 32°53' E 151°46'0 0.0
2018-May-24 14:32S 32°53' E 151°46'0 0.0
2018-May-24 14:20S 32°53' E 151°46'0 0.0
2018-May-24 13:50S 32°53' E 151°46'4 0.9
2018-May-24 09:00S 32°56' E 151°50'3 5.2
2018-May-24 08:30S 32°58' E 151°52'4 7.6
2018-May-24 08:00S 32°59' E 151°56'510.0
2018-May-24 07:30S 32°57' E 152°02'612.1
2018-May-24 07:00S 32°55' E 152°08'713.1
2018-May-24 06:30S 32°52' E 152°15'613.0
2018-May-24 06:01S 32°50' E 152°22'713.1
2018-May-24 05:30S 32°47' E 152°30'611.9
2018-May-24 05:00S 32°44' E 152°36'3 6.3
2018-May-24 04:30S 32°43' E 152°39'0 0.2
2018-May-24 03:56S 32°43' E 152°39'0 0.2
2018-May-24 03:29S 32°43' E 152°39'0 0.5
2018-May-24 02:59S 32°43' E 152°39'0 0.5
2018-May-24 02:29S 32°43' E 152°39'0 0.3
2018-May-24 01:56S 32°43' E 152°39'0 0.3
2018-May-24 01:26S 32°43' E 152°39'0 0.2
2018-May-24 00:59S 32°43' E 152°38'0 0.5
2018-May-24 00:29S 32°43' E 152°38'0 0.5
2018-May-23 23:59S 32°43' E 152°38'0 0.4
2018-May-23 23:26S 32°43' E 152°38'0 0.4
2018-May-23 22:57S 32°42' E 152°37'0 0.5
2018-May-23 22:30S 32°42' E 152°37'0 0.5
2018-May-23 21:59S 32°42' E 152°37'0 0.6
2018-May-23 21:29S 32°42' E 152°37'0 0.6
2018-May-23 20:59S 32°42' E 152°37'0 0.4
2018-May-23 20:29S 32°41' E 152°37'2 4.0
2018-May-23 20:00S 32°40' E 152°36'5 9.4
2018-May-23 19:30S 32°36' E 152°32'3 6.4
2018-May-23 19:00S 32°33' E 152°33'611.7
2018-May-23 18:30S 32°29' E 152°37'611.3
2018-May-23 18:00S 32°24' E 152°40'611.4
2018-May-23 17:28S 32°18' E 152°43'1311.4
2018-May-23 16:22S 32°06' E 152°48'910.8
2018-May-23 15:32S 31°58' E 152°52'  
Track history (hours):
 
Tides and Currents Weather Stations Pressure Air Temp Water Temp Dewpoint Dewpoint Depression Visibility Wind Speed Wind Dir Waves Ship Positions

Shoryu

Last reported at 2018-May-26 15:21 UTC. Time now 2018-Jun-19 23:41 UTC.
Position S 32°25' E 152°40'.
Warning: this ship's position is 24 days out of date.

Length 235 m; draft 12.9 m.

Type: Cargo ship. MMSI: 351897000.

Date/timePositionNaut miles runAvg speedWind from/ knotsBaromVisibWave heightAir tempDewpointWater temp
2018-May-26 15:21S 32°25' E 152°40'3 9.3
2018-May-26 15:00S 32°28' E 152°38'6 9.6
2018-May-26 14:20S 32°33' E 152°33'411.0
2018-May-26 13:56S 32°36' E 152°30'511.1
2018-May-26 13:30S 32°39' E 152°25'611.0
2018-May-26 13:00S 32°43' E 152°21'611.0
2018-May-26 12:30S 32°47' E 152°16'611.1
2018-May-26 12:00S 32°50' E 152°11'510.6
2018-May-26 11:30S 32°54' E 152°06'510.3
2018-May-26 11:00S 32°57' E 152°01'510.2
2018-May-26 10:30S 32°58' E 151°55'4 8.3
2018-May-26 10:00S 32°58' E 151°50'4 7.4
2018-May-26 09:30S 32°55' E 151°48'2 3.5
2018-May-26 09:00S 32°55' E 151°46'1 2.3
2018-May-26 08:27S 32°53' E 151°46'0 0.0
2018-May-26 06:32S 32°53' E 151°46'0 0.0
2018-May-26 06:02S 32°53' E 151°46'0 0.0
2018-May-26 05:26S 32°53' E 151°46'0 0.0
2018-May-26 04:56S 32°53' E 151°46'0 0.0
2018-May-26 04:26S 32°53' E 151°46'0 0.0
2018-May-26 03:14S 32°53' E 151°46'0 0.0
2018-May-26 02:44S 32°53' E 151°46'0 0.0
2018-May-26 02:29S 32°53' E 151°46'0 0.0
2018-May-26 00:11S 32°53' E 151°46'0 0.0
2018-May-25 23:56S 32°53' E 151°46'0 0.0
2018-May-25 23:29S 32°53' E 151°46'0 0.0
2018-May-25 22:41S 32°53' E 151°46'0 0.0
2018-May-25 13:26S 32°53' E 151°46'0 0.0
2018-May-25 12:56S 32°53' E 151°46'0 0.0
2018-May-24 21:14S 32°53' E 151°46'0 0.0
2018-May-24 20:56S 32°53' E 151°46'0 0.0
2018-May-24 20:20S 32°53' E 151°46'0 0.0
2018-May-24 19:50S 32°53' E 151°46'0 0.0
2018-May-24 19:17S 32°53' E 151°46'0 0.0
2018-May-24 18:59S 32°53' E 151°46'0 0.0
2018-May-24 17:38S 32°53' E 151°46'0 0.0
2018-May-24 17:26S 32°53' E 151°46'0 0.0
2018-May-24 15:50S 32°53' E 151°46'0 0.0
2018-May-24 15:26S 32°53' E 151°46'0 0.0
2018-May-24 14:32S 32°53' E 151°46'0 0.0
2018-May-24 14:20S 32°53' E 151°46'0 0.0
2018-May-24 13:50S 32°53' E 151°46'4 0.9
2018-May-24 09:00S 32°56' E 151°50'3 5.2
2018-May-24 08:30S 32°58' E 151°52'4 7.6
2018-May-24 08:00S 32°59' E 151°56'510.0
2018-May-24 07:30S 32°57' E 152°02'612.1
2018-May-24 07:00S 32°55' E 152°08'713.1
2018-May-24 06:30S 32°52' E 152°15'613.0
2018-May-24 06:01S 32°50' E 152°22'713.1
2018-May-24 05:30S 32°47' E 152°30'611.9
2018-May-24 05:00S 32°44' E 152°36'3 6.3
2018-May-24 04:30S 32°43' E 152°39'0 0.2
2018-May-24 03:56S 32°43' E 152°39'0 0.2
2018-May-24 03:29S 32°43' E 152°39'0 0.5
2018-May-24 02:59S 32°43' E 152°39'0 0.5
2018-May-24 02:29S 32°43' E 152°39'0 0.3
2018-May-24 01:56S 32°43' E 152°39'0 0.3
2018-May-24 01:26S 32°43' E 152°39'0 0.2
2018-May-24 00:59S 32°43' E 152°38'0 0.5
2018-May-24 00:29S 32°43' E 152°38'0 0.5
2018-May-23 23:59S 32°43' E 152°38'0 0.4
2018-May-23 23:26S 32°43' E 152°38'0 0.4
2018-May-23 22:57S 32°42' E 152°37'0 0.5
2018-May-23 22:30S 32°42' E 152°37'0 0.5
2018-May-23 21:59S 32°42' E 152°37'0 0.6
2018-May-23 21:29S 32°42' E 152°37'0 0.6
2018-May-23 20:59S 32°42' E 152°37'0 0.4
2018-May-23 20:29S 32°41' E 152°37'2 4.0
2018-May-23 20:00S 32°40' E 152°36'5 9.4
2018-May-23 19:30S 32°36' E 152°32'3 6.4
2018-May-23 19:00S 32°33' E 152°33'611.7
2018-May-23 18:30S 32°29' E 152°37'611.3
2018-May-23 18:00S 32°24' E 152°40'611.4
2018-May-23 17:28S 32°18' E 152°43'1311.4
2018-May-23 16:22S 32°06' E 152°48'910.8
2018-May-23 15:32S 31°58' E 152°52'  

Dump ship's entire track history